PABA

Barter Island LRRS Airport

Airport
ICAO code
PABA
IATA Code
BTI
Summary
ICAO Region
NAM
ICAO Territory
Location

Barter Island, Alaska

Serving
Barter Island
Elevation
2 ft
Coordinates
70° 8' 2" N , 143° 34' 55" W
Metar
PABA 151952Z 34006KT 10SM FEW005 01/M01 A3024 RMK AO2 SLP247 T00111006 FZRANO

Runways

Designator Length Width Surface Rops
7/25 1469 30 GRAVEL-P Yes/Yes

Airport map

Aerial View

SKYbrary Partners:

Safety knowledge contributed by: